sensor_id;sensor_type;location;lat;lon;timestamp;P1;durP1;ratioP1;P2;durP2;ratioP2
56680;SDS011;42558;52.388;13.390;2023-03-01T00:02:05;52.25;;;30.21;;
56680;SDS011;42558;52.388;13.390;2023-03-01T00:04:35;47.12;;;28.88;;
56680;SDS011;42558;52.388;13.390;2023-03-01T00:07:05;43.32;;;27.74;;
56680;SDS011;42558;52.388;13.390;2023-03-01T00:09:36;49.59;;;30.02;;
56680;SDS011;42558;52.388;13.390;2023-03-01T00:12:07;50.35;;;28.88;;
56680;SDS011;42558;52.388;13.390;2023-03-01T00:14:41;50.54;;;27.17;;
56680;SDS011;42558;52.388;13.390;2023-03-01T00:17:08;54.53;;;31.35;;
56680;SDS011;42558;52.388;13.390;2023-03-01T00:19:37;51.68;;;29.45;;
56680;SDS011;42558;52.388;13.390;2023-03-01T00:22:05;51.30;;;30.40;;
56680;SDS011;42558;52.388;13.390;2023-03-01T00:24:34;52.25;;;30.40;;
56680;SDS011;42558;52.388;13.390;2023-03-01T00:27:02;49.78;;;28.50;;
56680;SDS011;42558;52.388;13.390;2023-03-01T00:29:31;57.95;;;31.16;;
56680;SDS011;42558;52.388;13.390;2023-03-01T00:31:59;53.58;;;30.21;;
56680;SDS011;42558;52.388;13.390;2023-03-01T00:34:27;48.64;;;26.60;;
56680;SDS011;42558;52.388;13.390;2023-03-01T00:36:56;42.75;;;26.60;;
56680;SDS011;42558;52.388;13.390;2023-03-01T00:39:33;50.16;;;27.55;;
56680;SDS011;42558;52.388;13.390;2023-03-01T00:42:03;50.16;;;29.26;;
56680;SDS011;42558;52.388;13.390;2023-03-01T00:44:34;44.65;;;26.79;;
56680;SDS011;42558;52.388;13.390;2023-03-01T00:47:04;45.41;;;26.60;;
56680;SDS011;42558;52.388;13.390;2023-03-01T00:49:34;39.71;;;23.37;;
56680;SDS011;42558;52.388;13.390;2023-03-01T00:52:04;34.39;;;21.85;;
56680;SDS011;42558;52.388;13.390;2023-03-01T00:54:34;38.95;;;21.85;;
56680;SDS011;42558;52.388;13.390;2023-03-01T00:57:03;40.47;;;22.23;;
56680;SDS011;42558;52.388;13.390;2023-03-01T00:59:33;38.19;;;21.09;;
56680;SDS011;42558;52.388;13.390;2023-03-01T01:02:03;30.40;;;19.00;;
56680;SDS011;42558;52.388;13.390;2023-03-01T01:04:33;36.67;;;20.14;;
56680;SDS011;42558;52.388;13.390;2023-03-01T01:07:03;36.86;;;21.28;;
56680;SDS011;42558;52.388;13.390;2023-03-01T01:09:33;36.86;;;20.52;;
56680;SDS011;42558;52.388;13.390;2023-03-01T01:12:03;33.82;;;18.81;;
56680;SDS011;42558;52.388;13.390;2023-03-01T01:14:35;30.59;;;17.48;;
56680;SDS011;42558;52.388;13.390;2023-03-01T01:17:04;26.03;;;15.96;;
56680;SDS011;42558;52.388;13.390;2023-03-01T01:19:34;28.88;;;16.53;;
56680;SDS011;42558;52.388;13.390;2023-03-01T01:22:04;33.06;;;17.10;;
56680;SDS011;42558;52.388;13.390;2023-03-01T01:24:35;32.49;;;18.24;;
56680;SDS011;42558;52.388;13.390;2023-03-01T01:27:04;32.87;;;17.67;;
56680;SDS011;42558;52.388;13.390;2023-03-01T01:29:35;26.41;;;15.96;;
56680;SDS011;42558;52.388;13.390;2023-03-01T01:32:06;27.17;;;16.91;;
56680;SDS011;42558;52.388;13.390;2023-03-01T01:34:36;30.21;;;16.34;;
56680;SDS011;42558;52.388;13.390;2023-03-01T01:37:06;29.83;;;16.91;;
56680;SDS011;42558;52.388;13.390;2023-03-01T01:39:36;30.97;;;17.10;;
56680;SDS011;42558;52.388;13.390;2023-03-01T01:42:05;33.44;;;18.05;;
56680;SDS011;42558;52.388;13.390;2023-03-01T01:44:46;29.83;;;18.05;;
56680;SDS011;42558;52.388;13.390;2023-03-01T01:47:18;34.01;;;19.00;;
56680;SDS011;42558;52.388;13.390;2023-03-01T01:49:55;33.63;;;18.43;;
56680;SDS011;42558;52.388;13.390;2023-03-01T01:52:31;36.29;;;21.28;;
56680;SDS011;42558;52.388;13.390;2023-03-01T01:55:34;37.81;;;20.71;;
56680;SDS011;42558;52.388;13.390;2023-03-01T01:58:11;35.15;;;19.76;;
56680;SDS011;42558;52.388;13.390;2023-03-01T02:00:45;37.24;;;20.52;;
56680;SDS011;42558;52.388;13.390;2023-03-01T02:03:28;29.07;;;16.91;;
56680;SDS011;42558;52.388;13.390;2023-03-01T02:06:15;30.21;;;18.81;;
56680;SDS011;42558;52.388;13.390;2023-03-01T02:09:14;35.91;;;17.67;;
56680;SDS011;42558;52.388;13.390;2023-03-01T02:11:47;32.11;;;18.62;;
56680;SDS011;42558;52.388;13.390;2023-03-01T02:14:17;40.47;;;21.09;;
56680;SDS011;42558;52.388;13.390;2023-03-01T02:16:46;29.07;;;15.77;;
56680;SDS011;42558;52.388;13.390;2023-03-01T02:22:24;29.45;;;18.43;;
56680;SDS011;42558;52.388;13.390;2023-03-01T02:28:17;36.67;;;17.10;;
56680;SDS011;42558;52.388;13.390;2023-03-01T02:30:53;30.02;;;16.72;;
56680;SDS011;42558;52.388;13.390;2023-03-01T02:33:43;33.82;;;19.19;;
56680;SDS011;42558;52.388;13.390;2023-03-01T02:36:18;35.91;;;17.86;;
56680;SDS011;42558;52.388;13.390;2023-03-01T02:38:54;35.34;;;19.38;;
56680;SDS011;42558;52.388;13.390;2023-03-01T02:41:28;37.81;;;19.19;;
56680;SDS011;42558;52.388;13.390;2023-03-01T02:44:02;35.72;;;19.57;;
56680;SDS011;42558;52.388;13.390;2023-03-01T02:46:32;37.43;;;21.28;;
56680;SDS011;42558;52.388;13.390;2023-03-01T02:49:18;37.24;;;19.95;;
56680;SDS011;42558;52.388;13.390;2023-03-01T02:54:52;36.86;;;19.38;;
56680;SDS011;42558;52.388;13.390;2023-03-01T02:57:38;36.10;;;18.43;;
56680;SDS011;42558;52.388;13.390;2023-03-01T03:00:17;35.91;;;18.43;;
56680;SDS011;42558;52.388;13.390;2023-03-01T03:02:53;34.77;;;19.19;;
56680;SDS011;42558;52.388;13.390;2023-03-01T03:05:27;40.09;;;20.33;;
56680;SDS011;42558;52.388;13.390;2023-03-01T03:08:00;39.71;;;19.57;;
56680;SDS011;42558;52.388;13.390;2023-03-01T03:10:35;41.23;;;20.52;;
56680;SDS011;42558;52.388;13.390;2023-03-01T03:13:11;31.35;;;19.57;;
56680;SDS011;42558;52.388;13.390;2023-03-01T03:15:43;34.58;;;19.57;;
56680;SDS011;42558;52.388;13.390;2023-03-01T03:18:16;39.71;;;21.09;;
56680;SDS011;42558;52.388;13.390;2023-03-01T03:20:47;36.48;;;18.05;;
56680;SDS011;42558;52.388;13.390;2023-03-01T03:23:22;39.71;;;18.62;;
56680;SDS011;42558;52.388;13.390;2023-03-01T03:25:52;36.48;;;19.19;;
56680;SDS011;42558;52.388;13.390;2023-03-01T03:28:21;38.38;;;19.76;;
56680;SDS011;42558;52.388;13.390;2023-03-01T03:30:49;36.48;;;20.14;;
56680;SDS011;42558;52.388;13.390;2023-03-01T03:33:18;33.82;;;19.76;;
56680;SDS011;42558;52.388;13.390;2023-03-01T03:35:48;37.24;;;19.38;;
56680;SDS011;42558;52.388;13.390;2023-03-01T03:38:19;35.15;;;20.14;;
56680;SDS011;42558;52.388;13.390;2023-03-01T03:41:00;33.82;;;19.00;;
56680;SDS011;42558;52.388;13.390;2023-03-01T03:43:34;38.19;;;20.14;;
56680;SDS011;42558;52.388;13.390;2023-03-01T03:46:06;34.77;;;20.90;;
56680;SDS011;42558;52.388;13.390;2023-03-01T03:48:39;43.70;;;20.71;;
56680;SDS011;42558;52.388;13.390;2023-03-01T03:51:12;33.25;;;20.52;;
56680;SDS011;42558;52.388;13.390;2023-03-01T03:53:45;36.10;;;20.71;;
56680;SDS011;42558;52.388;13.390;2023-03-01T03:56:15;39.90;;;22.04;;
56680;SDS011;42558;52.388;13.390;2023-03-01T03:58:45;34.39;;;21.09;;
56680;SDS011;42558;52.388;13.390;2023-03-01T04:01:14;36.48;;;21.09;;
56680;SDS011;42558;52.388;13.390;2023-03-01T04:03:44;44.46;;;22.61;;
56680;SDS011;42558;52.388;13.390;2023-03-01T04:06:16;47.50;;;23.18;;
56680;SDS011;42558;52.388;13.390;2023-03-01T04:08:46;41.04;;;22.61;;
56680;SDS011;42558;52.388;13.390;2023-03-01T04:11:16;38.00;;;20.71;;
56680;SDS011;42558;52.388;13.390;2023-03-01T04:13:57;41.42;;;23.37;;
56680;SDS011;42558;52.388;13.390;2023-03-01T04:16:28;46.36;;;22.61;;
56680;SDS011;42558;52.388;13.390;2023-03-01T04:18:59;41.80;;;22.61;;
56680;SDS011;42558;52.388;13.390;2023-03-01T04:21:29;38.19;;;21.47;;
56680;SDS011;42558;52.388;13.390;2023-03-01T04:23:59;33.82;;;19.19;;
56680;SDS011;42558;52.388;13.390;2023-03-01T04:26:29;43.70;;;23.18;;
56680;SDS011;42558;52.388;13.390;2023-03-01T04:28:59;36.10;;;20.90;;
56680;SDS011;42558;52.388;13.390;2023-03-01T04:31:29;29.64;;;17.67;;
56680;SDS011;42558;52.388;13.390;2023-03-01T04:33:59;33.25;;;19.38;;
56680;SDS011;42558;52.388;13.390;2023-03-01T04:36:29;38.19;;;19.38;;
56680;SDS011;42558;52.388;13.390;2023-03-01T04:39:00;29.64;;;16.72;;
56680;SDS011;42558;52.388;13.390;2023-03-01T04:41:41;33.06;;;19.57;;
56680;SDS011;42558;52.388;13.390;2023-03-01T04:44:10;33.25;;;18.81;;
56680;SDS011;42558;52.388;13.390;2023-03-01T04:46:38;29.64;;;18.24;;
56680;SDS011;42558;52.388;13.390;2023-03-01T04:49:07;27.74;;;17.10;;
56680;SDS011;42558;52.388;13.390;2023-03-01T04:51:35;28.31;;;15.96;;
56680;SDS011;42558;52.388;13.390;2023-03-01T04:54:03;29.26;;;16.91;;
56680;SDS011;42558;52.388;13.390;2023-03-01T04:56:32;32.68;;;18.24;;
56680;SDS011;42558;52.388;13.390;2023-03-01T04:59:00;29.07;;;19.00;;
56680;SDS011;42558;52.388;13.390;2023-03-01T05:01:29;32.49;;;19.00;;
56680;SDS011;42558;52.388;13.390;2023-03-01T05:03:57;35.15;;;19.19;;
56680;SDS011;42558;52.388;13.390;2023-03-01T05:06:32;31.54;;;19.00;;
56680;SDS011;42558;52.388;13.390;2023-03-01T05:09:02;36.10;;;18.05;;
56680;SDS011;42558;52.388;13.390;2023-03-01T05:11:32;33.25;;;19.38;;
56680;SDS011;42558;52.388;13.390;2023-03-01T05:14:07;43.32;;;22.04;;
56680;SDS011;42558;52.388;13.390;2023-03-01T05:16:38;38.57;;;22.23;;
56680;SDS011;42558;52.388;13.390;2023-03-01T05:19:08;39.90;;;21.28;;
56680;SDS011;42558;52.388;13.390;2023-03-01T05:21:44;33.82;;;20.14;;
56680;SDS011;42558;52.388;13.390;2023-03-01T05:24:34;36.29;;;20.90;;
56680;SDS011;42558;52.388;13.390;2023-03-01T05:27:04;36.48;;;19.19;;
56680;SDS011;42558;52.388;13.390;2023-03-01T05:29:33;45.03;;;20.71;;
56680;SDS011;42558;52.388;13.390;2023-03-01T05:32:02;37.81;;;21.47;;
56680;SDS011;42558;52.388;13.390;2023-03-01T05:34:33;41.61;;;20.90;;
56680;SDS011;42558;52.388;13.390;2023-03-01T05:37:04;38.38;;;21.47;;
56680;SDS011;42558;52.388;13.390;2023-03-01T05:39:37;38.57;;;21.09;;
56680;SDS011;42558;52.388;13.390;2023-03-01T05:42:10;38.19;;;19.57;;
56680;SDS011;42558;52.388;13.390;2023-03-01T05:44:42;38.38;;;19.19;;
56680;SDS011;42558;52.388;13.390;2023-03-01T05:47:12;32.68;;;19.19;;
56680;SDS011;42558;52.388;13.390;2023-03-01T05:49:42;38.00;;;19.38;;
56680;SDS011;42558;52.388;13.390;2023-03-01T05:52:12;34.77;;;17.86;;
56680;SDS011;42558;52.388;13.390;2023-03-01T05:54:42;33.82;;;18.43;;
56680;SDS011;42558;52.388;13.390;2023-03-01T05:57:12;29.64;;;17.86;;
56680;SDS011;42558;52.388;13.390;2023-03-01T05:59:41;33.25;;;19.95;;
56680;SDS011;42558;52.388;13.390;2023-03-01T06:02:11;35.91;;;18.81;;
56680;SDS011;42558;52.388;13.390;2023-03-01T06:04:41;33.06;;;20.14;;
56680;SDS011;42558;52.388;13.390;2023-03-01T06:07:11;33.63;;;19.76;;
56680;SDS011;42558;52.388;13.390;2023-03-01T06:09:41;40.66;;;19.57;;
56680;SDS011;42558;52.388;13.390;2023-03-01T06:12:12;40.09;;;21.28;;
56680;SDS011;42558;52.388;13.390;2023-03-01T06:14:46;37.43;;;20.71;;
56680;SDS011;42558;52.388;13.390;2023-03-01T06:17:17;39.90;;;21.47;;
56680;SDS011;42558;52.388;13.390;2023-03-01T06:19:47;36.86;;;20.90;;
56680;SDS011;42558;52.388;13.390;2023-03-01T06:22:16;42.18;;;22.61;;
56680;SDS011;42558;52.388;13.390;2023-03-01T06:24:46;41.42;;;22.23;;
56680;SDS011;42558;52.388;13.390;2023-03-01T06:27:16;42.94;;;22.61;;
56680;SDS011;42558;52.388;13.390;2023-03-01T06:29:46;45.03;;;22.99;;
56680;SDS011;42558;52.388;13.390;2023-03-01T06:32:16;48.83;;;22.61;;
56680;SDS011;42558;52.388;13.390;2023-03-01T06:34:46;38.76;;;22.04;;
56680;SDS011;42558;52.388;13.390;2023-03-01T06:37:16;41.99;;;23.75;;
56680;SDS011;42558;52.388;13.390;2023-03-01T06:39:47;44.46;;;24.13;;
56680;SDS011;42558;52.388;13.390;2023-03-01T06:42:16;41.23;;;22.42;;
56680;SDS011;42558;52.388;13.390;2023-03-01T06:44:46;45.22;;;24.13;;
56680;SDS011;42558;52.388;13.390;2023-03-01T06:47:16;42.94;;;22.99;;
56680;SDS011;42558;52.388;13.390;2023-03-01T06:49:46;45.03;;;23.18;;
56680;SDS011;42558;52.388;13.390;2023-03-01T06:52:16;45.79;;;25.46;;
56680;SDS011;42558;52.388;13.390;2023-03-01T06:54:45;39.33;;;22.80;;
56680;SDS011;42558;52.388;13.390;2023-03-01T06:57:16;41.99;;;24.32;;
56680;SDS011;42558;52.388;13.390;2023-03-01T06:59:47;43.51;;;25.65;;
56680;SDS011;42558;52.388;13.390;2023-03-01T07:02:17;41.80;;;24.51;;
56680;SDS011;42558;52.388;13.390;2023-03-01T07:04:51;46.74;;;24.13;;
56680;SDS011;42558;52.388;13.390;2023-03-01T07:07:22;49.97;;;26.22;;
56680;SDS011;42558;52.388;13.390;2023-03-01T07:09:52;47.12;;;23.94;;
56680;SDS011;42558;52.388;13.390;2023-03-01T07:12:22;48.64;;;24.51;;
56680;SDS011;42558;52.388;13.390;2023-03-01T07:14:52;38.57;;;23.18;;
56680;SDS011;42558;52.388;13.390;2023-03-01T07:17:22;42.94;;;23.75;;
56680;SDS011;42558;52.388;13.390;2023-03-01T07:19:52;45.03;;;26.41;;
56680;SDS011;42558;52.388;13.390;2023-03-01T07:22:22;45.98;;;27.17;;
56680;SDS011;42558;52.388;13.390;2023-03-01T07:24:50;51.49;;;28.88;;
56680;SDS011;42558;52.388;13.390;2023-03-01T07:27:19;54.53;;;27.55;;
56680;SDS011;42558;52.388;13.390;2023-03-01T07:29:47;47.12;;;27.74;;
56680;SDS011;42558;52.388;13.390;2023-03-01T07:32:16;44.84;;;26.79;;
56680;SDS011;42558;52.388;13.390;2023-03-01T07:34:44;47.31;;;26.22;;
56680;SDS011;42558;52.388;13.390;2023-03-01T07:37:12;50.92;;;28.50;;
56680;SDS011;42558;52.388;13.390;2023-03-01T07:39:41;43.51;;;26.79;;
56680;SDS011;42558;52.388;13.390;2023-03-01T07:42:10;46.36;;;25.84;;
56680;SDS011;42558;52.388;13.390;2023-03-01T07:44:41;41.23;;;25.65;;
56680;SDS011;42558;52.388;13.390;2023-03-01T07:47:09;46.17;;;26.98;;
56680;SDS011;42558;52.388;13.390;2023-03-01T07:49:37;43.32;;;27.93;;
56680;SDS011;42558;52.388;13.390;2023-03-01T07:52:05;47.69;;;27.55;;
56680;SDS011;42558;52.388;13.390;2023-03-01T07:54:32;47.69;;;27.55;;
56680;SDS011;42558;52.388;13.390;2023-03-01T07:57:00;41.99;;;26.03;;
56680;SDS011;42558;52.388;13.390;2023-03-01T07:59:29;44.65;;;26.22;;
56680;SDS011;42558;52.388;13.390;2023-03-01T08:01:57;46.93;;;28.31;;
56680;SDS011;42558;52.388;13.390;2023-03-01T08:04:26;47.69;;;28.50;;
56680;SDS011;42558;52.388;13.390;2023-03-01T08:06:54;43.51;;;26.60;;
56680;SDS011;42558;52.388;13.390;2023-03-01T08:09:23;42.18;;;25.27;;
56680;SDS011;42558;52.388;13.390;2023-03-01T08:11:51;44.65;;;25.65;;
56680;SDS011;42558;52.388;13.390;2023-03-01T08:14:19;38.19;;;25.08;;
56680;SDS011;42558;52.388;13.390;2023-03-01T08:16:51;43.13;;;25.84;;
56680;SDS011;42558;52.388;13.390;2023-03-01T08:19:21;45.41;;;26.03;;
56680;SDS011;42558;52.388;13.390;2023-03-01T08:21:51;42.56;;;22.61;;
56680;SDS011;42558;52.388;13.390;2023-03-01T08:24:21;45.79;;;26.41;;
56680;SDS011;42558;52.388;13.390;2023-03-01T08:26:51;48.64;;;25.84;;
56680;SDS011;42558;52.388;13.390;2023-03-01T08:29:21;39.71;;;24.13;;
56680;SDS011;42558;52.388;13.390;2023-03-01T08:31:51;45.03;;;24.89;;
56680;SDS011;42558;52.388;13.390;2023-03-01T08:34:21;38.00;;;24.13;;
56680;SDS011;42558;52.388;13.390;2023-03-01T08:36:51;45.41;;;24.51;;
56680;SDS011;42558;52.388;13.390;2023-03-01T08:39:21;37.43;;;21.85;;
56680;SDS011;42558;52.388;13.390;2023-03-01T08:41:52;39.90;;;22.04;;
56680;SDS011;42558;52.388;13.390;2023-03-01T08:44:22;40.09;;;23.56;;
56680;SDS011;42558;52.388;13.390;2023-03-01T08:46:52;38.76;;;22.99;;
56680;SDS011;42558;52.388;13.390;2023-03-01T08:49:23;32.68;;;22.42;;
56680;SDS011;42558;52.388;13.390;2023-03-01T08:51:54;34.01;;;20.90;;
56680;SDS011;42558;52.388;13.390;2023-03-01T08:54:23;35.72;;;19.76;;
56680;SDS011;42558;52.388;13.390;2023-03-01T08:56:54;33.44;;;18.43;;
56680;SDS011;42558;52.388;13.390;2023-03-01T08:59:25;25.65;;;16.53;;
56680;SDS011;42558;52.388;13.390;2023-03-01T09:01:54;32.87;;;18.24;;
56680;SDS011;42558;52.388;13.390;2023-03-01T09:04:24;30.40;;;19.00;;
56680;SDS011;42558;52.388;13.390;2023-03-01T09:06:53;28.69;;;18.05;;
56680;SDS011;42558;52.388;13.390;2023-03-01T09:09:23;30.40;;;18.81;;
56680;SDS011;42558;52.388;13.390;2023-03-01T09:11:53;31.35;;;18.24;;
56680;SDS011;42558;52.388;13.390;2023-03-01T09:14:23;28.88;;;17.86;;
56680;SDS011;42558;52.388;13.390;2023-03-01T09:16:53;29.26;;;17.10;;
56680;SDS011;42558;52.388;13.390;2023-03-01T09:19:23;26.41;;;17.86;;
56680;SDS011;42558;52.388;13.390;2023-03-01T09:21:53;28.50;;;17.10;;
56680;SDS011;42558;52.388;13.390;2023-03-01T09:24:25;28.50;;;18.05;;
56680;SDS011;42558;52.388;13.390;2023-03-01T09:26:55;27.55;;;16.34;;
56680;SDS011;42558;52.388;13.390;2023-03-01T09:29:25;29.26;;;16.91;;
56680;SDS011;42558;52.388;13.390;2023-03-01T09:31:53;27.55;;;15.39;;
56680;SDS011;42558;52.388;13.390;2023-03-01T09:34:22;26.03;;;15.96;;
56680;SDS011;42558;52.388;13.390;2023-03-01T09:36:50;25.65;;;17.10;;
56680;SDS011;42558;52.388;13.390;2023-03-01T09:39:19;26.41;;;17.48;;
56680;SDS011;42558;52.388;13.390;2023-03-01T09:42:02;24.70;;;17.10;;
56680;SDS011;42558;52.388;13.390;2023-03-01T09:47:30;21.66;;;15.01;;
56680;SDS011;42558;52.388;13.390;2023-03-01T09:50:15;21.66;;;13.87;;
56680;SDS011;42558;52.388;13.390;2023-03-01T09:58:47;19.76;;;12.73;;
56680;SDS011;42558;52.388;13.390;2023-03-01T10:09:58;24.70;;;16.91;;
56680;SDS011;42558;52.388;13.390;2023-03-01T10:12:35;26.98;;;17.29;;
56680;SDS011;42558;52.388;13.390;2023-03-01T10:17:56;25.27;;;16.15;;
56680;SDS011;42558;52.388;13.390;2023-03-01T10:23:14;21.28;;;15.58;;
56680;SDS011;42558;52.388;13.390;2023-03-01T10:34:13;23.94;;;14.44;;
56680;SDS011;42558;52.388;13.390;2023-03-01T10:36:50;22.99;;;15.58;;
56680;SDS011;42558;52.388;13.390;2023-03-01T10:39:24;22.42;;;15.39;;
56680;SDS011;42558;52.388;13.390;2023-03-01T10:42:00;25.46;;;15.20;;
56680;SDS011;42558;52.388;13.390;2023-03-01T10:44:47;28.12;;;15.39;;
56680;SDS011;42558;52.388;13.390;2023-03-01T10:47:26;22.99;;;17.48;;
56680;SDS011;42558;52.388;13.390;2023-03-01T10:50:18;23.75;;;15.39;;
56680;SDS011;42558;52.388;13.390;2023-03-01T10:53:01;24.70;;;15.01;;
56680;SDS011;42558;52.388;13.390;2023-03-01T10:55:38;23.56;;;14.44;;
56680;SDS011;42558;52.388;13.390;2023-03-01T10:58:16;21.85;;;14.06;;
56680;SDS011;42558;52.388;13.390;2023-03-01T11:01:05;21.09;;;13.30;;
56680;SDS011;42558;52.388;13.390;2023-03-01T11:03:37;19.57;;;11.40;;
56680;SDS011;42558;52.388;13.390;2023-03-01T11:08:45;25.65;;;13.87;;
56680;SDS011;42558;52.388;13.390;2023-03-01T11:14:07;19.76;;;13.11;;
56680;SDS011;42558;52.388;13.390;2023-03-01T11:19:42;25.65;;;14.25;;
56680;SDS011;42558;52.388;13.390;2023-03-01T11:22:30;24.51;;;14.44;;
56680;SDS011;42558;52.388;13.390;2023-03-01T11:25:04;26.03;;;14.25;;
56680;SDS011;42558;52.388;13.390;2023-03-01T11:27:44;22.42;;;14.25;;
56680;SDS011;42558;52.388;13.390;2023-03-01T11:30:24;22.42;;;13.68;;
56680;SDS011;42558;52.388;13.390;2023-03-01T11:36:15;23.37;;;14.25;;
56680;SDS011;42558;52.388;13.390;2023-03-01T11:38:49;21.66;;;12.16;;
56680;SDS011;42558;52.388;13.390;2023-03-01T11:41:25;20.71;;;13.11;;
56680;SDS011;42558;52.388;13.390;2023-03-01T11:56:41;27.55;;;15.77;;
56680;SDS011;42558;52.388;13.390;2023-03-01T12:06:27;19.95;;;12.54;;
56680;SDS011;42558;52.388;13.390;2023-03-01T12:15:13;22.42;;;14.25;;
56680;SDS011;42558;52.388;13.390;2023-03-01T12:27:06;19.95;;;10.83;;
56680;SDS011;42558;52.388;13.390;2023-03-01T12:47:23;17.10;;;9.12;;
56680;SDS011;42558;52.388;13.390;2023-03-01T12:50:29;16.91;;;8.17;;
56680;SDS011;42558;52.388;13.390;2023-03-01T12:55:56;17.48;;;7.79;;
56680;SDS011;42558;52.388;13.390;2023-03-01T13:04:33;13.30;;;7.60;;
56680;SDS011;42558;52.388;13.390;2023-03-01T13:15:28;13.87;;;7.03;;
56680;SDS011;42558;52.388;13.390;2023-03-01T13:18:03;15.58;;;8.36;;
56680;SDS011;42558;52.388;13.390;2023-03-01T13:20:55;13.87;;;7.41;;
56680;SDS011;42558;52.388;13.390;2023-03-01T13:23:30;15.77;;;7.79;;
56680;SDS011;42558;52.388;13.390;2023-03-01T13:33:50;11.40;;;7.22;;
56680;SDS011;42558;52.388;13.390;2023-03-01T13:39:04;16.91;;;7.60;;
56680;SDS011;42558;52.388;13.390;2023-03-01T13:41:56;17.29;;;6.65;;
56680;SDS011;42558;52.388;13.390;2023-03-01T13:44:38;14.82;;;6.65;;
56680;SDS011;42558;52.388;13.390;2023-03-01T13:50:01;11.59;;;5.89;;
56680;SDS011;42558;52.388;13.390;2023-03-01T13:52:52;11.59;;;6.65;;
56680;SDS011;42558;52.388;13.390;2023-03-01T13:55:44;13.87;;;4.94;;
56680;SDS011;42558;52.388;13.390;2023-03-01T13:58:28;13.30;;;6.65;;
56680;SDS011;42558;52.388;13.390;2023-03-01T14:01:03;12.35;;;6.08;;
56680;SDS011;42558;52.388;13.390;2023-03-01T14:03:41;11.78;;;4.94;;
56680;SDS011;42558;52.388;13.390;2023-03-01T14:06:16;15.39;;;5.32;;
56680;SDS011;42558;52.388;13.390;2023-03-01T14:09:00;10.64;;;5.70;;
56680;SDS011;42558;52.388;13.390;2023-03-01T14:19:47;10.07;;;4.18;;
56680;SDS011;42558;52.388;13.390;2023-03-01T14:22:29;14.44;;;5.13;;
56680;SDS011;42558;52.388;13.390;2023-03-01T14:25:25;11.40;;;4.94;;
56680;SDS011;42558;52.388;13.390;2023-03-01T14:28:18;14.25;;;5.13;;
56680;SDS011;42558;52.388;13.390;2023-03-01T14:30:56;12.92;;;4.94;;
56680;SDS011;42558;52.388;13.390;2023-03-01T14:33:35;9.88;;;4.37;;
56680;SDS011;42558;52.388;13.390;2023-03-01T14:36:09;10.45;;;4.75;;
56680;SDS011;42558;52.388;13.390;2023-03-01T14:38:43;10.07;;;4.94;;
56680;SDS011;42558;52.388;13.390;2023-03-01T14:41:20;11.40;;;4.75;;
56680;SDS011;42558;52.388;13.390;2023-03-01T14:43:58;9.88;;;5.13;;
56680;SDS011;42558;52.388;13.390;2023-03-01T14:46:38;8.74;;;4.56;;
56680;SDS011;42558;52.388;13.390;2023-03-01T14:49:21;13.49;;;5.32;;
56680;SDS011;42558;52.388;13.390;2023-03-01T14:51:57;8.93;;;4.75;;
56680;SDS011;42558;52.388;13.390;2023-03-01T14:54:41;12.35;;;4.75;;
56680;SDS011;42558;52.388;13.390;2023-03-01T14:59:53;10.07;;;5.51;;
56680;SDS011;42558;52.388;13.390;2023-03-01T15:02:28;10.07;;;5.13;;
56680;SDS011;42558;52.388;13.390;2023-03-01T15:05:02;12.35;;;5.32;;
56680;SDS011;42558;52.388;13.390;2023-03-01T15:07:40;11.97;;;6.27;;
56680;SDS011;42558;52.388;13.390;2023-03-01T15:10:24;9.69;;;5.32;;
56680;SDS011;42558;52.388;13.390;2023-03-01T15:13:10;14.63;;;5.70;;
56680;SDS011;42558;52.388;13.390;2023-03-01T15:15:53;11.97;;;5.32;;
56680;SDS011;42558;52.388;13.390;2023-03-01T15:18:36;11.21;;;6.08;;
56680;SDS011;42558;52.388;13.390;2023-03-01T15:21:29;11.02;;;5.32;;
56680;SDS011;42558;52.388;13.390;2023-03-01T15:24:17;10.45;;;5.13;;
56680;SDS011;42558;52.388;13.390;2023-03-01T15:26:57;13.11;;;5.13;;
56680;SDS011;42558;52.388;13.390;2023-03-01T15:29:32;10.64;;;5.70;;
56680;SDS011;42558;52.388;13.390;2023-03-01T15:35:09;13.11;;;5.32;;
56680;SDS011;42558;52.388;13.390;2023-03-01T15:38:32;12.16;;;5.13;;
56680;SDS011;42558;52.388;13.390;2023-03-01T15:41:47;9.12;;;5.51;;
56680;SDS011;42558;52.388;13.390;2023-03-01T15:44:33;12.73;;;5.32;;
56680;SDS011;42558;52.388;13.390;2023-03-01T15:47:29;12.35;;;4.94;;
56680;SDS011;42558;52.388;13.390;2023-03-01T15:50:01;10.26;;;4.37;;
56680;SDS011;42558;52.388;13.390;2023-03-01T15:52:35;12.73;;;4.94;;
56680;SDS011;42558;52.388;13.390;2023-03-01T15:57:58;12.35;;;4.37;;
56680;SDS011;42558;52.388;13.390;2023-03-01T16:00:45;9.50;;;4.94;;
56680;SDS011;42558;52.388;13.390;2023-03-01T16:03:28;11.97;;;4.37;;
56680;SDS011;42558;52.388;13.390;2023-03-01T16:05:58;11.78;;;4.56;;
56680;SDS011;42558;52.388;13.390;2023-03-01T16:08:25;8.36;;;4.37;;
56680;SDS011;42558;52.388;13.390;2023-03-01T16:10:55;9.69;;;4.94;;
56680;SDS011;42558;52.388;13.390;2023-03-01T16:13:25;11.97;;;5.13;;
56680;SDS011;42558;52.388;13.390;2023-03-01T16:15:56;9.31;;;4.56;;
56680;SDS011;42558;52.388;13.390;2023-03-01T16:18:26;11.02;;;5.32;;
56680;SDS011;42558;52.388;13.390;2023-03-01T16:20:56;10.45;;;5.13;;
56680;SDS011;42558;52.388;13.390;2023-03-01T16:23:26;12.16;;;5.51;;
56680;SDS011;42558;52.388;13.390;2023-03-01T16:25:59;15.39;;;7.03;;
56680;SDS011;42558;52.388;13.390;2023-03-01T16:28:29;13.11;;;5.70;;
56680;SDS011;42558;52.388;13.390;2023-03-01T16:30:59;10.83;;;5.51;;
56680;SDS011;42558;52.388;13.390;2023-03-01T16:33:30;11.40;;;5.70;;
56680;SDS011;42558;52.388;13.390;2023-03-01T16:36:08;13.30;;;6.84;;
56680;SDS011;42558;52.388;13.390;2023-03-01T16:38:37;13.30;;;5.51;;
56680;SDS011;42558;52.388;13.390;2023-03-01T16:41:13;11.78;;;6.08;;
56680;SDS011;42558;52.388;13.390;2023-03-01T16:43:45;11.97;;;6.46;;
56680;SDS011;42558;52.388;13.390;2023-03-01T16:46:23;11.21;;;6.08;;
56680;SDS011;42558;52.388;13.390;2023-03-01T16:48:57;10.83;;;5.89;;
56680;SDS011;42558;52.388;13.390;2023-03-01T16:51:27;14.06;;;6.27;;
56680;SDS011;42558;52.388;13.390;2023-03-01T16:54:00;10.45;;;5.70;;
56680;SDS011;42558;52.388;13.390;2023-03-01T16:56:30;13.30;;;5.51;;
56680;SDS011;42558;52.388;13.390;2023-03-01T16:59:02;10.26;;;5.32;;
56680;SDS011;42558;52.388;13.390;2023-03-01T17:01:34;13.87;;;5.70;;
56680;SDS011;42558;52.388;13.390;2023-03-01T17:04:11;16.72;;;6.27;;
56680;SDS011;42558;52.388;13.390;2023-03-01T17:06:40;13.68;;;6.08;;
56680;SDS011;42558;52.388;13.390;2023-03-01T17:09:08;13.49;;;6.27;;
56680;SDS011;42558;52.388;13.390;2023-03-01T17:11:37;11.02;;;6.27;;
56680;SDS011;42558;52.388;13.390;2023-03-01T17:14:06;11.40;;;5.51;;
56680;SDS011;42558;52.388;13.390;2023-03-01T17:16:34;13.49;;;5.13;;
56680;SDS011;42558;52.388;13.390;2023-03-01T17:19:02;11.78;;;4.75;;
56680;SDS011;42558;52.388;13.390;2023-03-01T17:21:31;11.02;;;4.94;;
56680;SDS011;42558;52.388;13.390;2023-03-01T17:23:59;11.02;;;5.13;;